createdAt,value
2019-04-25T00:00:46.794Z,23.70
2019-04-25T00:03:16.912Z,21.17
2019-04-25T00:05:44.736Z,21.43
2019-04-25T00:08:11.786Z,22.63
2019-04-25T00:10:39.178Z,23.33
2019-04-25T00:13:06.302Z,23.57
2019-04-25T00:15:32.949Z,23.13
2019-04-25T00:17:59.520Z,23.07
2019-04-25T00:20:29.072Z,22.63
2019-04-25T00:22:58.561Z,23.20
2019-04-25T00:25:27.501Z,24.27
2019-04-25T00:27:54.166Z,22.50
2019-04-25T00:30:22.810Z,23.20
2019-04-25T00:32:49.364Z,24.17
2019-04-25T00:35:15.926Z,24.40
2019-04-25T00:37:44.324Z,24.23
2019-04-25T00:40:11.894Z,23.27
2019-04-25T00:42:39.658Z,22.60
2019-04-25T00:45:06.929Z,23.10
2019-04-25T00:47:33.477Z,23.87
2019-04-25T00:50:00.086Z,21.97
2019-04-25T00:52:27.324Z,23.07
2019-04-25T00:54:53.997Z,24.07
2019-04-25T00:57:22.268Z,23.20
2019-04-25T00:59:56.827Z,24.03
2019-04-25T01:02:27.885Z,21.80
2019-04-25T01:04:55.097Z,24.20
2019-04-25T01:07:22.443Z,24.67
2019-04-25T01:09:49.912Z,24.23
2019-04-25T01:12:18.533Z,23.03
2019-04-25T01:14:46.480Z,23.50
2019-04-25T01:17:14.849Z,25.30
2019-04-25T01:19:41.518Z,24.83
2019-04-25T01:22:09.056Z,24.57
2019-04-25T01:24:36.732Z,24.50
2019-04-25T01:27:05.393Z,25.70
2019-04-25T01:29:33.440Z,25.50
2019-04-25T01:32:00.472Z,25.83
2019-04-25T01:34:30.051Z,25.80
2019-04-25T01:36:58.706Z,28.10
2019-04-25T01:39:36.325Z,28.20
2019-04-25T01:42:13.780Z,29.20
2019-04-25T01:44:49.510Z,28.23
2019-04-25T01:47:16.422Z,29.43
2019-04-25T01:49:43.972Z,29.80
2019-04-25T01:52:10.920Z,29.70
2019-04-25T01:54:38.425Z,29.87
2019-04-25T01:57:05.142Z,31.93
2019-04-25T01:59:31.813Z,29.73
2019-04-25T02:02:00.282Z,29.07
2019-04-25T02:04:28.515Z,30.83
2019-04-25T02:06:55.776Z,31.20
2019-04-25T02:09:24.899Z,32.07
2019-04-25T02:11:54.688Z,31.33
2019-04-25T02:14:23.687Z,30.90
2019-04-25T02:16:51.774Z,31.70
2019-04-25T02:19:19.106Z,31.20
2019-04-25T02:21:46.084Z,30.20
2019-04-25T02:24:13.715Z,31.17
2019-04-25T02:26:40.782Z,31.23
2019-04-25T02:29:07.423Z,32.90
2019-04-25T02:31:34.818Z,31.87
2019-04-25T02:34:03.664Z,31.80
2019-04-25T02:36:30.215Z,31.97
2019-04-25T02:38:58.522Z,31.87
2019-04-25T02:41:25.393Z,31.17
2019-04-25T02:43:52.141Z,31.40
2019-04-25T02:46:38.119Z,31.17
2019-04-25T02:49:32.847Z,31.67
2019-04-25T02:51:59.025Z,29.83
2019-04-25T02:54:24.714Z,25.17
2019-04-25T02:56:54.751Z,25.20
2019-04-25T02:59:21.552Z,21.30
2019-04-25T03:01:48.107Z,19.20
2019-04-25T03:04:14.686Z,13.90
2019-04-25T03:06:41.341Z,14.20
2019-04-25T03:09:10.251Z,12.33
2019-04-25T03:11:36.916Z,8.40
2019-04-25T03:14:06.570Z,9.70
2019-04-25T03:16:34.630Z,9.33
2019-04-25T03:19:09.395Z,8.63
2019-04-25T03:21:37.958Z,4.40
2019-04-25T03:24:09.064Z,5.40
2019-04-25T03:26:40.338Z,6.43
2019-04-25T03:29:04.663Z,6.03
2019-04-25T03:31:34.894Z,6.93
2019-04-25T03:34:05.498Z,6.67
2019-04-25T03:36:30.625Z,4.17
2019-04-25T03:38:57.640Z,5.47
2019-04-25T03:41:24.585Z,5.03
2019-04-25T03:43:51.342Z,4.63
2019-04-25T03:46:17.973Z,5.63
2019-04-25T03:48:45.640Z,4.77
2019-04-25T03:51:15.348Z,4.90
2019-04-25T03:53:41.062Z,4.17
2019-04-25T03:56:08.637Z,5.23
2019-04-25T03:58:35.609Z,5.77
2019-04-25T04:01:05.944Z,5.30
2019-04-25T04:03:33.935Z,5.63
2019-04-25T04:06:01.596Z,5.67
2019-04-25T04:08:29.817Z,5.30
2019-04-25T04:10:56.616Z,5.63
2019-04-25T04:13:24.401Z,6.10
2019-04-25T04:15:53.198Z,7.07
2019-04-25T04:18:25.343Z,5.80
2019-04-25T04:20:55.658Z,6.07
2019-04-25T04:23:24.327Z,6.43
2019-04-25T04:25:51.143Z,7.07
2019-04-25T04:28:19.408Z,6.87
2019-04-25T04:30:46.140Z,8.47
2019-04-25T04:33:26.813Z,8.03
2019-04-25T04:35:41.646Z,7.23
2019-04-25T04:38:09.611Z,6.77
2019-04-25T04:40:36.441Z,7.87
2019-04-25T04:43:04.421Z,7.80
2019-04-25T04:45:31.175Z,7.63
2019-04-25T04:47:57.588Z,8.50
2019-04-25T04:50:25.331Z,7.80
2019-04-25T04:52:52.036Z,9.00
2019-04-25T04:55:20.300Z,7.30
2019-04-25T04:57:46.936Z,7.23
2019-04-25T05:00:15.591Z,6.60
2019-04-25T05:02:50.241Z,7.07
2019-04-25T05:05:19.129Z,5.90
2019-04-25T05:07:50.250Z,6.63
2019-04-25T05:10:18.680Z,7.57
2019-04-25T05:12:45.355Z,7.70
2019-04-25T05:15:15.300Z,6.97
2019-04-25T05:17:41.165Z,7.47
2019-04-25T05:20:08.250Z,7.50
2019-04-25T05:22:36.474Z,8.57
2019-04-25T05:25:05.246Z,8.50
2019-04-25T05:27:46.374Z,8.53
2019-04-25T05:30:04.087Z,8.43
2019-04-25T05:32:30.803Z,8.80
2019-04-25T05:34:57.434Z,9.73
2019-04-25T05:37:26.490Z,8.53
2019-04-25T05:39:53.618Z,9.03
2019-04-25T05:42:27.825Z,8.43
2019-04-25T05:44:56.989Z,9.60
2019-04-25T05:47:26.026Z,9.23
2019-04-25T05:49:52.107Z,8.40
2019-04-25T05:52:19.900Z,9.00
2019-04-25T05:54:46.638Z,9.60
2019-04-25T05:57:14.891Z,9.73
2019-04-25T05:59:43.648Z,9.70
2019-04-25T06:02:10.544Z,10.03
2019-04-25T06:04:37.487Z,10.83
2019-04-25T06:07:05.698Z,11.67
2019-04-25T06:09:37.020Z,11.50
2019-04-25T06:12:23.716Z,12.37
2019-04-25T06:14:52.952Z,11.43
2019-04-25T06:17:30.051Z,10.10
2019-04-25T06:19:57.883Z,8.40
2019-04-25T06:22:43.532Z,9.10
2019-04-25T06:25:13.787Z,8.93
2019-04-25T06:27:44.728Z,8.37
2019-04-25T06:30:15.742Z,8.70
2019-04-25T06:32:44.259Z,8.30
2019-04-25T06:35:11.894Z,7.40
2019-04-25T06:37:38.558Z,6.93
2019-04-25T06:40:06.900Z,6.57
2019-04-25T06:42:34.688Z,8.50
2019-04-25T06:45:05.099Z,7.83
2019-04-25T06:47:37.911Z,6.77
2019-04-25T06:50:05.138Z,7.10
2019-04-25T06:52:32.090Z,6.63
2019-04-25T06:54:59.446Z,7.30
2019-04-25T06:57:27.007Z,7.60
2019-04-25T06:59:54.572Z,6.97
2019-04-25T07:02:23.431Z,6.97
2019-04-25T07:04:51.627Z,7.90
2019-04-25T07:07:19.055Z,7.47
2019-04-25T07:09:45.695Z,7.73
2019-04-25T07:12:13.455Z,5.23
2019-04-25T07:14:40.370Z,5.90
2019-04-25T07:17:06.950Z,5.93
2019-04-25T07:19:35.532Z,6.87
2019-04-25T07:22:03.919Z,4.57
2019-04-25T07:24:31.396Z,4.50
2019-04-25T07:27:13.764Z,5.40
2019-04-25T07:29:43.327Z,5.60
2019-04-25T07:32:11.849Z,3.63
2019-04-25T07:34:38.390Z,4.20
2019-04-25T07:37:05.062Z,3.83
2019-04-25T07:39:32.486Z,2.70
2019-04-25T07:42:00.061Z,5.47
2019-04-25T07:44:38.046Z,3.40
2019-04-25T07:46:55.045Z,3.27
2019-04-25T07:49:23.391Z,3.47
2019-04-25T07:51:50.050Z,3.90
2019-04-25T07:54:16.592Z,3.03
2019-04-25T07:56:43.743Z,2.90
2019-04-25T07:59:10.926Z,2.50
2019-04-25T08:01:39.084Z,3.27
2019-04-25T08:04:05.746Z,3.90
2019-04-25T08:06:33.455Z,3.57
2019-04-25T08:09:00.856Z,3.10
2019-04-25T08:11:29.870Z,2.63
2019-04-25T08:13:58.470Z,2.00
2019-04-25T08:16:26.914Z,1.80
2019-04-25T08:18:54.028Z,1.93
2019-04-25T08:21:21.694Z,4.47
2019-04-25T08:23:48.381Z,2.53
2019-04-25T08:26:15.330Z,2.20
2019-04-25T08:28:54.009Z,2.13
2019-04-25T08:31:10.762Z,1.93
2019-04-25T08:33:37.740Z,1.90
2019-04-25T08:36:09.103Z,1.33
2019-04-25T08:38:34.668Z,1.97
2019-04-25T08:41:01.228Z,2.80
2019-04-25T08:43:30.011Z,1.83
2019-04-25T08:45:57.650Z,1.60
2019-04-25T08:48:26.916Z,1.90
2019-04-25T08:51:03.678Z,2.67
2019-04-25T08:53:35.748Z,1.77
2019-04-25T08:56:05.494Z,1.67
2019-04-25T08:58:43.681Z,1.63
2019-04-25T09:01:30.077Z,1.27
2019-04-25T09:04:13.436Z,1.00
2019-04-25T09:06:40.459Z,1.67
2019-04-25T09:09:07.192Z,0.97
2019-04-25T09:11:36.642Z,1.30
2019-04-25T09:14:03.682Z,1.30
2019-04-25T09:16:30.525Z,1.00
2019-04-25T09:18:57.090Z,1.10
2019-04-25T09:21:23.869Z,1.23
2019-04-25T09:23:50.493Z,1.03
2019-04-25T09:26:17.036Z,1.77
2019-04-25T09:28:45.420Z,1.27
2019-04-25T09:31:14.046Z,2.43
2019-04-25T09:33:41.218Z,1.47
2019-04-25T09:36:08.040Z,3.17
2019-04-25T09:38:35.675Z,1.23
2019-04-25T09:41:03.852Z,1.40
2019-04-25T09:43:30.470Z,1.00
2019-04-25T09:46:08.000Z,1.23
2019-04-25T09:48:40.257Z,1.00
2019-04-25T09:51:09.633Z,1.30
2019-04-25T09:53:44.949Z,1.23
2019-04-25T09:56:10.346Z,2.00
2019-04-25T09:58:48.259Z,1.27
2019-04-25T10:01:15.408Z,1.40
2019-04-25T10:03:43.590Z,2.50
2019-04-25T10:06:14.154Z,0.93
2019-04-25T10:08:41.099Z,1.20
2019-04-25T10:11:08.143Z,1.67
2019-04-25T10:13:34.770Z,1.33
2019-04-25T10:16:04.259Z,1.10
2019-04-25T10:18:33.467Z,1.20
2019-04-25T10:21:00.861Z,2.77
2019-04-25T10:23:27.393Z,1.13
2019-04-25T10:25:54.170Z,1.00
2019-04-25T10:28:23.295Z,1.30
2019-04-25T10:30:50.171Z,1.20
2019-04-25T10:33:20.503Z,1.67
2019-04-25T10:35:53.113Z,1.20
2019-04-25T10:38:17.413Z,2.30
2019-04-25T10:40:46.130Z,1.27
2019-04-25T10:43:14.188Z,1.77
2019-04-25T10:45:42.291Z,1.77
2019-04-25T10:48:08.899Z,1.40
2019-04-25T10:50:35.778Z,3.63
2019-04-25T10:53:04.052Z,2.00
2019-04-25T10:55:32.686Z,1.27
2019-04-25T10:57:59.442Z,1.40
2019-04-25T11:00:37.653Z,1.73
2019-04-25T11:03:26.452Z,1.83
2019-04-25T11:05:55.762Z,3.20
2019-04-25T11:08:24.370Z,2.13
2019-04-25T11:10:53.494Z,2.67
2019-04-25T11:13:20.285Z,1.60
2019-04-25T11:15:49.736Z,2.00
2019-04-25T11:18:17.083Z,2.00
2019-04-25T11:20:44.675Z,1.70
2019-04-25T11:23:11.284Z,1.80
2019-04-25T11:25:38.011Z,1.50
2019-04-25T11:28:08.093Z,2.30
2019-04-25T11:30:34.721Z,1.17
2019-04-25T11:33:01.595Z,2.40
2019-04-25T11:35:28.726Z,1.47
2019-04-25T11:37:58.594Z,1.90
2019-04-25T11:40:47.842Z,1.40
2019-04-25T11:43:14.150Z,2.80
2019-04-25T11:45:41.690Z,1.30
2019-04-25T11:48:08.362Z,2.30
2019-04-25T11:50:36.993Z,1.67
2019-04-25T11:53:04.749Z,1.80
2019-04-25T11:55:31.462Z,1.20
2019-04-25T11:57:58.027Z,2.40
2019-04-25T12:00:26.690Z,1.50
2019-04-25T12:02:54.945Z,3.10
2019-04-25T12:05:23.510Z,3.10
2019-04-25T12:07:50.417Z,2.77
2019-04-25T12:10:18.573Z,1.80
2019-04-25T12:12:47.157Z,3.40
2019-04-25T12:15:14.906Z,3.13
2019-04-25T12:17:42.094Z,2.60
2019-04-25T12:20:10.043Z,1.83
2019-04-25T12:22:38.312Z,2.03
2019-04-25T12:25:06.261Z,1.33
2019-04-25T12:27:33.528Z,1.67
2019-04-25T12:30:00.979Z,2.37
2019-04-25T12:32:29.048Z,3.00
2019-04-25T12:34:56.089Z,1.77
2019-04-25T12:37:23.250Z,2.03
2019-04-25T12:39:51.287Z,2.60
2019-04-25T12:42:17.944Z,1.87
2019-04-25T12:44:47.817Z,1.77
2019-04-25T12:47:16.924Z,1.37
2019-04-25T12:49:44.201Z,2.17
2019-04-25T12:52:11.541Z,3.03
2019-04-25T12:54:38.115Z,2.30
2019-04-25T12:57:05.618Z,2.07
2019-04-25T12:59:32.486Z,2.63
2019-04-25T13:01:58.964Z,2.30
2019-04-25T13:04:25.534Z,4.03
2019-04-25T13:06:52.832Z,1.97
2019-04-25T13:09:21.541Z,2.73
2019-04-25T13:11:48.178Z,2.00
2019-04-25T13:14:15.756Z,3.23
2019-04-25T13:16:44.228Z,2.90
2019-04-25T13:19:20.287Z,2.23
2019-04-25T13:21:39.926Z,2.70
2019-04-25T13:24:06.725Z,2.40
2019-04-25T13:26:35.379Z,2.47
2019-04-25T13:29:21.258Z,2.77
2019-04-25T13:32:06.409Z,2.70
2019-04-25T13:34:37.891Z,3.00
2019-04-25T13:37:06.729Z,3.20
2019-04-25T13:39:34.197Z,3.73
2019-04-25T13:42:02.425Z,2.53
2019-04-25T13:44:29.984Z,1.80
2019-04-25T13:46:56.608Z,3.80
2019-04-25T13:49:23.285Z,3.07
2019-04-25T13:51:50.830Z,2.67
2019-04-25T13:54:17.605Z,2.30
2019-04-25T13:56:44.247Z,1.83
2019-04-25T13:59:11.758Z,2.90
2019-04-25T14:01:39.289Z,2.60
2019-04-25T14:04:06.537Z,2.07
2019-04-25T14:06:33.977Z,3.40
2019-04-25T14:09:00.549Z,2.53
2019-04-25T14:11:27.994Z,3.57
2019-04-25T14:13:54.746Z,2.53
2019-04-25T14:16:25.329Z,2.50
2019-04-25T14:19:13.037Z,2.77
2019-04-25T14:21:40.360Z,2.40
2019-04-25T14:24:07.020Z,3.80
2019-04-25T14:26:33.945Z,2.33
2019-04-25T14:29:01.415Z,3.70
2019-04-25T14:31:41.025Z,3.80
2019-04-25T14:33:59.605Z,2.93
2019-04-25T14:36:28.330Z,2.70
2019-04-25T14:38:55.461Z,1.63
2019-04-25T14:41:22.384Z,2.63
2019-04-25T14:43:49.581Z,3.00
2019-04-25T14:46:16.250Z,4.13
2019-04-25T14:48:43.502Z,3.33
2019-04-25T14:51:10.915Z,2.83
2019-04-25T14:53:37.594Z,1.80
2019-04-25T14:56:08.962Z,1.77
2019-04-25T14:58:39.790Z,4.20
2019-04-25T15:01:06.991Z,2.37
2019-04-25T15:03:33.718Z,3.53
2019-04-25T15:06:00.613Z,2.70
2019-04-25T15:08:27.142Z,2.70
2019-04-25T15:10:53.821Z,3.27
2019-04-25T15:13:20.457Z,3.43
2019-04-25T15:15:47.018Z,5.37
2019-04-25T15:18:13.659Z,2.67
2019-04-25T15:20:40.333Z,3.40
2019-04-25T15:23:06.883Z,3.80
2019-04-25T15:25:33.446Z,3.20
2019-04-25T15:28:00.065Z,3.10
2019-04-25T15:30:29.414Z,4.87
2019-04-25T15:32:56.068Z,3.17
2019-04-25T15:35:27.991Z,2.97
2019-04-25T15:38:12.571Z,4.80
2019-04-25T15:40:50.001Z,2.90
2019-04-25T15:43:31.413Z,2.80
2019-04-25T15:46:00.068Z,2.90
2019-04-25T15:48:26.611Z,3.13
2019-04-25T15:50:54.186Z,2.40
2019-04-25T15:53:21.729Z,3.43
2019-04-25T15:55:48.453Z,2.63
2019-04-25T15:58:15.094Z,2.47
2019-04-25T16:00:41.795Z,2.63
2019-04-25T16:03:09.537Z,1.97
2019-04-25T16:05:36.301Z,2.40
2019-04-25T16:08:04.147Z,3.23
2019-04-25T16:10:31.849Z,2.30
2019-04-25T16:12:58.549Z,4.93
2019-04-25T16:15:25.069Z,1.83
2019-04-25T16:17:51.740Z,3.23
2019-04-25T16:20:18.378Z,1.70
2019-04-25T16:22:45.565Z,1.67
2019-04-25T16:25:12.628Z,2.20
2019-04-25T16:27:41.103Z,5.08
2019-04-25T16:30:10.051Z,2.07
2019-04-25T16:32:36.727Z,2.00
2019-04-25T16:35:05.253Z,2.70
2019-04-25T16:37:32.418Z,1.20
2019-04-25T16:39:59.954Z,3.00
2019-04-25T16:42:26.516Z,2.83
2019-04-25T16:44:53.258Z,3.00
2019-04-25T16:47:21.953Z,3.37
2019-04-25T16:49:49.296Z,1.67
2019-04-25T16:52:17.681Z,1.30
2019-04-25T16:54:44.517Z,1.43
2019-04-25T16:57:11.991Z,1.73
2019-04-25T16:59:38.661Z,4.43
2019-04-25T17:02:06.110Z,0.83
2019-04-25T17:04:33.211Z,2.40
2019-04-25T17:07:00.629Z,1.10
2019-04-25T17:09:30.346Z,3.63
2019-04-25T17:11:57.437Z,3.27
2019-04-25T17:14:26.481Z,1.27
2019-04-25T17:17:01.454Z,2.30
2019-04-25T17:19:30.533Z,2.37
2019-04-25T17:21:57.453Z,3.43
2019-04-25T17:24:24.225Z,1.80
2019-04-25T17:26:52.589Z,3.97
2019-04-25T17:29:20.022Z,2.53
2019-04-25T17:31:48.580Z,1.80
2019-04-25T17:34:26.193Z,1.90
2019-04-25T17:37:04.470Z,1.13
2019-04-25T17:39:42.232Z,2.00
2019-04-25T17:42:09.029Z,1.33
2019-04-25T17:44:36.316Z,2.30
2019-04-25T17:47:06.509Z,1.47
2019-04-25T17:49:32.772Z,0.90
2019-04-25T17:51:59.547Z,1.43
2019-04-25T17:54:27.816Z,1.60
2019-04-25T17:56:54.466Z,1.37
2019-04-25T17:59:21.473Z,2.50
2019-04-25T18:01:48.308Z,4.83
2019-04-25T18:04:15.286Z,2.83
2019-04-25T18:06:42.106Z,1.40
2019-04-25T18:09:09.085Z,3.90
2019-04-25T18:11:38.079Z,2.50
2019-04-25T18:14:05.088Z,1.50
2019-04-25T18:16:34.696Z,1.90
2019-04-25T18:19:06.160Z,1.23
2019-04-25T18:21:32.797Z,2.10
2019-04-25T18:24:04.270Z,1.37
2019-04-25T18:26:35.361Z,1.60
2019-04-25T18:29:03.810Z,2.50
2019-04-25T18:31:30.340Z,1.10
2019-04-25T18:33:58.952Z,1.83
2019-04-25T18:36:30.162Z,1.73
2019-04-25T18:39:12.329Z,2.50
2019-04-25T18:41:46.565Z,2.47
2019-04-25T18:44:14.323Z,1.43
2019-04-25T18:46:42.882Z,1.17
2019-04-25T18:49:09.569Z,1.60
2019-04-25T18:51:37.222Z,2.60
2019-04-25T18:54:19.066Z,3.23
2019-04-25T18:57:07.342Z,1.70
2019-04-25T18:59:48.192Z,1.30
2019-04-25T19:02:20.188Z,3.20
2019-04-25T19:04:49.198Z,2.80
2019-04-25T19:07:22.431Z,1.22
2019-04-25T19:09:45.293Z,2.83
2019-04-25T19:12:12.066Z,2.10
2019-04-25T19:14:39.854Z,1.83
2019-04-25T19:17:09.782Z,2.27
2019-04-25T19:19:36.533Z,1.23
2019-04-25T19:22:03.341Z,2.60
2019-04-25T19:24:30.067Z,2.30
2019-04-25T19:26:56.642Z,3.63
2019-04-25T19:29:23.329Z,2.03
2019-04-25T19:31:53.001Z,3.27
2019-04-25T19:34:19.563Z,2.30
2019-04-25T19:36:46.923Z,1.90
2019-04-25T19:39:13.978Z,2.20
2019-04-25T19:41:42.940Z,2.33
2019-04-25T19:44:11.726Z,2.93
2019-04-25T19:46:41.464Z,5.47
2019-04-25T19:49:08.653Z,2.27
2019-04-25T19:51:35.333Z,3.27
2019-04-25T19:54:03.956Z,2.20
2019-04-25T19:56:30.697Z,4.10
2019-04-25T19:58:58.471Z,2.10
2019-04-25T20:01:26.267Z,1.10
2019-04-25T20:03:58.375Z,2.07
2019-04-25T20:06:26.791Z,1.47
2019-04-25T20:08:58.850Z,2.47
2019-04-25T20:11:33.369Z,1.57
2019-04-25T20:14:00.171Z,1.40
2019-04-25T20:16:28.549Z,2.17
2019-04-25T20:18:55.187Z,2.57
2019-04-25T20:21:23.469Z,2.80
2019-04-25T20:23:50.112Z,4.67
2019-04-25T20:26:16.594Z,2.10
2019-04-25T20:28:44.834Z,3.90
2019-04-25T20:31:11.594Z,2.40
2019-04-25T20:33:38.414Z,1.80
2019-04-25T20:36:17.079Z,1.87
2019-04-25T20:38:33.682Z,2.40
2019-04-25T20:41:00.348Z,2.77
2019-04-25T20:43:27.096Z,2.40
2019-04-25T20:45:54.446Z,4.20
2019-04-25T20:48:21.619Z,3.80
2019-04-25T20:50:48.810Z,2.90
2019-04-25T20:53:15.919Z,2.27
2019-04-25T20:55:42.486Z,2.40
2019-04-25T20:58:09.085Z,4.00
2019-04-25T21:00:41.360Z,4.83
2019-04-25T21:03:08.245Z,3.87
2019-04-25T21:05:35.743Z,3.43
2019-04-25T21:08:03.482Z,3.67
2019-04-25T21:10:30.209Z,3.90
2019-04-25T21:12:57.758Z,3.90
2019-04-25T21:15:43.206Z,3.90
2019-04-25T21:18:14.287Z,4.97
2019-04-25T21:20:41.020Z,5.73
2019-04-25T21:23:07.801Z,5.50
2019-04-25T21:25:34.453Z,6.47
2019-04-25T21:28:01.154Z,6.30
2019-04-25T21:30:27.946Z,6.73
2019-04-25T21:32:55.544Z,6.67
2019-04-25T21:35:23.104Z,7.00
2019-04-25T21:37:49.867Z,7.30
2019-04-25T21:40:18.647Z,8.00
2019-04-25T21:42:47.566Z,7.57
2019-04-25T21:45:15.093Z,8.70
2019-04-25T21:47:42.349Z,8.30
2019-04-25T21:50:09.437Z,11.23
2019-04-25T21:52:37.065Z,8.30
2019-04-25T21:55:05.255Z,9.30
2019-04-25T21:57:32.242Z,9.40
2019-04-25T22:00:06.118Z,10.00
2019-04-25T22:02:28.697Z,9.87
2019-04-25T22:04:57.125Z,10.03
2019-04-25T22:07:25.269Z,9.90
2019-04-25T22:09:52.453Z,10.47
2019-04-25T22:12:21.536Z,10.50
2019-04-25T22:14:48.319Z,10.07
2019-04-25T22:17:15.093Z,11.37
2019-04-25T22:19:41.936Z,11.40
2019-04-25T22:22:09.083Z,11.43
2019-04-25T22:24:35.614Z,11.73
2019-04-25T22:27:05.305Z,12.03
2019-04-25T22:29:34.189Z,12.13
2019-04-25T22:32:05.977Z,12.47
2019-04-25T22:34:52.355Z,12.63
2019-04-25T22:37:15.438Z,12.87
2019-04-25T22:39:42.340Z,12.30
2019-04-25T22:42:08.927Z,12.50
2019-04-25T22:44:35.912Z,13.40
2019-04-25T22:47:04.261Z,12.93
2019-04-25T22:49:31.237Z,14.13
2019-04-25T22:51:57.828Z,15.63
2019-04-25T22:54:25.818Z,13.83
2019-04-25T22:56:52.349Z,14.00
2019-04-25T22:59:19.382Z,13.77
2019-04-25T23:01:51.047Z,14.50
2019-04-25T23:04:19.788Z,14.87
2019-04-25T23:06:46.661Z,15.47
2019-04-25T23:09:14.449Z,15.23
2019-04-25T23:11:41.434Z,15.23
2019-04-25T23:14:08.846Z,14.33
2019-04-25T23:16:35.807Z,14.97
2019-04-25T23:19:02.936Z,15.20
2019-04-25T23:21:30.617Z,16.10
2019-04-25T23:23:57.295Z,15.67
2019-04-25T23:26:27.439Z,15.43
2019-04-25T23:28:59.288Z,15.37
2019-04-25T23:31:27.767Z,15.07
2019-04-25T23:33:54.695Z,16.80
2019-04-25T23:36:21.305Z,17.87
2019-04-25T23:38:47.987Z,15.73
2019-04-25T23:41:15.684Z,16.70
2019-04-25T23:43:42.392Z,16.07
2019-04-25T23:46:10.088Z,16.53
2019-04-25T23:48:38.745Z,16.70
2019-04-25T23:51:06.365Z,16.67
2019-04-25T23:53:33.357Z,17.30
2019-04-25T23:56:01.591Z,15.70
2019-04-25T23:58:29.068Z,16.60
